sensor_id;sensor_type;location;lat;lon;timestamp;pressure;altitude;pressure_sealevel;temperature;humidity
40372;BME280;28564;53.346;-6.554;2023-12-14T00:00:46;100704.48;;;11.00;47.78
40372;BME280;28564;53.346;-6.554;2023-12-14T00:03:13;100695.81;;;11.24;47.72
40372;BME280;28564;53.346;-6.554;2023-12-14T00:05:40;100692.82;;;11.02;47.72
40372;BME280;28564;53.346;-6.554;2023-12-14T00:08:07;100694.72;;;11.24;47.78
40372;BME280;28564;53.346;-6.554;2023-12-14T00:10:39;100691.72;;;11.04;47.78
40372;BME280;28564;53.346;-6.554;2023-12-14T00:13:07;100690.48;;;11.26;47.72
40372;BME280;28564;53.346;-6.554;2023-12-14T00:15:35;100693.59;;;11.06;47.79
40372;BME280;28564;53.346;-6.554;2023-12-14T00:18:01;100692.93;;;11.09;47.74
40372;BME280;28564;53.346;-6.554;2023-12-14T00:20:29;100699.09;;;11.10;47.78
40372;BME280;28564;53.346;-6.554;2023-12-14T00:22:56;100693.41;;;11.12;47.72
40372;BME280;28564;53.346;-6.554;2023-12-14T00:25:23;100684.04;;;11.12;47.70
40372;BME280;28564;53.346;-6.554;2023-12-14T00:27:51;100685.35;;;11.14;47.80
40372;BME280;28564;53.346;-6.554;2023-12-14T00:30:18;100683.63;;;11.37;47.76
40372;BME280;28564;53.346;-6.554;2023-12-14T00:32:45;100683.26;;;11.39;47.66
40372;BME280;28564;53.346;-6.554;2023-12-14T00:35:12;100682.83;;;11.64;47.67
40372;BME280;28564;53.346;-6.554;2023-12-14T00:37:40;100686.26;;;11.34;47.87
40372;BME280;28564;53.346;-6.554;2023-12-14T00:40:08;100691.20;;;11.14;47.87
40372;BME280;28564;53.346;-6.554;2023-12-14T00:42:35;100684.94;;;11.36;47.95
40372;BME280;28564;53.346;-6.554;2023-12-14T00:45:03;100680.39;;;11.40;47.90
40372;BME280;28564;53.346;-6.554;2023-12-14T00:47:30;100682.22;;;11.20;47.95
40372;BME280;28564;53.346;-6.554;2023-12-14T00:49:58;100683.53;;;11.23;47.91
40372;BME280;28564;53.346;-6.554;2023-12-14T00:52:25;100690.88;;;11.27;47.89
40372;BME280;28564;53.346;-6.554;2023-12-14T00:54:52;100682.10;;;11.25;48.00
40372;BME280;28564;53.346;-6.554;2023-12-14T00:57:20;100688.82;;;11.49;48.09
40372;BME280;28564;53.346;-6.554;2023-12-14T00:59:47;100692.25;;;11.29;48.32
40372;BME280;28564;53.346;-6.554;2023-12-14T01:02:14;100687.58;;;11.23;48.65
40372;BME280;28564;53.346;-6.554;2023-12-14T01:04:41;100685.81;;;11.41;48.95
40372;BME280;28564;53.346;-6.554;2023-12-14T01:07:08;100692.47;;;11.65;49.31
40372;BME280;28564;53.346;-6.554;2023-12-14T01:09:36;100689.75;;;11.37;49.58
40372;BME280;28564;53.346;-6.554;2023-12-14T01:12:03;100671.50;;;11.34;49.67
40372;BME280;28564;53.346;-6.554;2023-12-14T01:14:30;100680.22;;;11.31;49.68
40372;BME280;28564;53.346;-6.554;2023-12-14T01:16:58;100674.33;;;11.30;50.10
40372;BME280;28564;53.346;-6.554;2023-12-14T01:19:25;100674.12;;;11.04;50.21
40372;BME280;28564;53.346;-6.554;2023-12-14T01:21:52;100685.04;;;11.28;50.47
40372;BME280;28564;53.346;-6.554;2023-12-14T01:24:19;100694.27;;;11.24;50.68
40372;BME280;28564;53.346;-6.554;2023-12-14T01:26:47;100696.92;;;11.02;50.84
40372;BME280;28564;53.346;-6.554;2023-12-14T01:29:14;100691.28;;;11.49;50.99
40372;BME280;28564;53.346;-6.554;2023-12-14T01:31:41;100686.53;;;11.20;51.24
40372;BME280;28564;53.346;-6.554;2023-12-14T01:34:08;100686.05;;;10.96;51.40
40372;BME280;28564;53.346;-6.554;2023-12-14T01:36:36;100678.09;;;10.99;51.46
40372;BME280;28564;53.346;-6.554;2023-12-14T01:39:03;100670.52;;;11.23;51.53
40372;BME280;28564;53.346;-6.554;2023-12-14T01:41:30;100671.15;;;11.02;51.63
40372;BME280;28564;53.346;-6.554;2023-12-14T01:43:57;100685.13;;;11.23;51.76
40372;BME280;28564;53.346;-6.554;2023-12-14T01:46:25;100678.68;;;10.98;51.90
40372;BME280;28564;53.346;-6.554;2023-12-14T01:48:52;100686.75;;;11.19;52.06
40372;BME280;28564;53.346;-6.554;2023-12-14T01:51:19;100678.78;;;11.15;52.19
40372;BME280;28564;53.346;-6.554;2023-12-14T01:53:47;100674.16;;;11.42;52.20
40372;BME280;28564;53.346;-6.554;2023-12-14T01:56:13;100678.10;;;11.22;52.11
40372;BME280;28564;53.346;-6.554;2023-12-14T01:58:41;100683.51;;;11.23;52.10
40372;BME280;28564;53.346;-6.554;2023-12-14T02:01:14;100684.66;;;11.25;52.07
40372;BME280;28564;53.346;-6.554;2023-12-14T02:03:45;100693.16;;;11.05;52.08
40372;BME280;28564;53.346;-6.554;2023-12-14T02:06:12;100684.77;;;11.29;52.08
40372;BME280;28564;53.346;-6.554;2023-12-14T02:08:39;100692.23;;;11.33;51.97
40372;BME280;28564;53.346;-6.554;2023-12-14T02:11:07;100693.62;;;11.34;51.90
40372;BME280;28564;53.346;-6.554;2023-12-14T02:13:34;100697.28;;;11.14;51.82
40372;BME280;28564;53.346;-6.554;2023-12-14T02:16:01;100690.60;;;11.39;51.73
40372;BME280;28564;53.346;-6.554;2023-12-14T02:18:28;100690.02;;;11.18;51.92
40372;BME280;28564;53.346;-6.554;2023-12-14T02:20:56;100697.03;;;11.21;51.83
40372;BME280;28564;53.346;-6.554;2023-12-14T02:23:23;100698.35;;;11.21;51.93
40372;BME280;28564;53.346;-6.554;2023-12-14T02:25:50;100704.57;;;11.49;51.86
40372;BME280;28564;53.346;-6.554;2023-12-14T02:28:18;100713.19;;;11.77;51.82
40372;BME280;28564;53.346;-6.554;2023-12-14T02:30:45;100708.69;;;11.27;51.96
40372;BME280;28564;53.346;-6.554;2023-12-14T02:33:12;100710.87;;;11.50;52.10
40372;BME280;28564;53.346;-6.554;2023-12-14T02:35:40;100710.51;;;11.57;52.09
40372;BME280;28564;53.346;-6.554;2023-12-14T02:38:07;100710.57;;;11.66;51.89
40372;BME280;28564;53.346;-6.554;2023-12-14T02:40:34;100706.92;;;11.49;51.75
40372;BME280;28564;53.346;-6.554;2023-12-14T02:43:02;100707.41;;;11.50;51.82
40372;BME280;28564;53.346;-6.554;2023-12-14T02:45:29;100705.65;;;11.55;51.77
40372;BME280;28564;53.346;-6.554;2023-12-14T02:47:56;100703.28;;;11.59;51.81
40372;BME280;28564;53.346;-6.554;2023-12-14T02:50:23;100706.84;;;11.64;51.76
40372;BME280;28564;53.346;-6.554;2023-12-14T02:52:51;100706.33;;;11.66;51.78
40372;BME280;28564;53.346;-6.554;2023-12-14T02:55:18;100709.22;;;11.72;51.79
40372;BME280;28564;53.346;-6.554;2023-12-14T02:57:45;100710.89;;;11.97;51.77
40372;BME280;28564;53.346;-6.554;2023-12-14T03:00:13;100706.65;;;11.76;51.79
40372;BME280;28564;53.346;-6.554;2023-12-14T03:02:41;100706.85;;;11.81;51.78
40372;BME280;28564;53.346;-6.554;2023-12-14T03:05:08;100707.87;;;11.84;51.89
40372;BME280;28564;53.346;-6.554;2023-12-14T03:07:35;100697.82;;;11.85;52.02
40372;BME280;28564;53.346;-6.554;2023-12-14T03:10:03;100698.32;;;11.88;52.18
40372;BME280;28564;53.346;-6.554;2023-12-14T03:12:31;100693.07;;;11.88;52.38
40372;BME280;28564;53.346;-6.554;2023-12-14T03:14:58;100694.93;;;11.83;52.68
40372;BME280;28564;53.346;-6.554;2023-12-14T03:17:25;100695.50;;;11.84;52.93
40372;BME280;28564;53.346;-6.554;2023-12-14T03:19:52;100700.03;;;11.93;52.76
40372;BME280;28564;53.346;-6.554;2023-12-14T03:22:19;100698.57;;;11.98;52.85
40372;BME280;28564;53.346;-6.554;2023-12-14T03:24:47;100701.02;;;11.72;52.94
40372;BME280;28564;53.346;-6.554;2023-12-14T03:27:14;100701.70;;;11.71;53.01
40372;BME280;28564;53.346;-6.554;2023-12-14T03:29:41;100697.51;;;11.90;53.32
40372;BME280;28564;53.346;-6.554;2023-12-14T03:32:09;100696.09;;;11.91;53.29
40372;BME280;28564;53.346;-6.554;2023-12-14T03:34:36;100686.64;;;11.92;53.24
40372;BME280;28564;53.346;-6.554;2023-12-14T03:37:03;100681.91;;;11.92;53.34
40372;BME280;28564;53.346;-6.554;2023-12-14T03:39:30;100682.63;;;11.95;53.36
40372;BME280;28564;53.346;-6.554;2023-12-14T03:41:58;100680.37;;;11.97;53.21
40372;BME280;28564;53.346;-6.554;2023-12-14T03:44:25;100685.77;;;11.99;53.12
40372;BME280;28564;53.346;-6.554;2023-12-14T03:46:52;100679.37;;;11.96;53.05
40372;BME280;28564;53.346;-6.554;2023-12-14T03:49:19;100684.60;;;11.89;53.31
40372;BME280;28564;53.346;-6.554;2023-12-14T03:51:46;100683.46;;;11.90;53.46
40372;BME280;28564;53.346;-6.554;2023-12-14T03:54:14;100685.79;;;11.92;53.41
40372;BME280;28564;53.346;-6.554;2023-12-14T03:56:41;100686.12;;;11.93;53.47
40372;BME280;28564;53.346;-6.554;2023-12-14T03:59:08;100685.97;;;11.96;53.38
40372;BME280;28564;53.346;-6.554;2023-12-14T04:01:35;100690.34;;;11.94;53.42
40372;BME280;28564;53.346;-6.554;2023-12-14T04:04:03;100685.01;;;11.93;53.63
40372;BME280;28564;53.346;-6.554;2023-12-14T04:06:30;100690.45;;;11.97;53.58
40372;BME280;28564;53.346;-6.554;2023-12-14T04:08:57;100687.40;;;12.01;53.45
40372;BME280;28564;53.346;-6.554;2023-12-14T04:11:24;100683.10;;;11.79;53.56
40372;BME280;28564;53.346;-6.554;2023-12-14T04:13:52;100686.57;;;12.03;53.57
40372;BME280;28564;53.346;-6.554;2023-12-14T04:16:20;100686.97;;;12.07;53.47
40372;BME280;28564;53.346;-6.554;2023-12-14T04:18:47;100690.02;;;11.86;53.50
40372;BME280;28564;53.346;-6.554;2023-12-14T04:21:14;100691.57;;;12.09;53.64
40372;BME280;28564;53.346;-6.554;2023-12-14T04:23:41;100682.65;;;11.61;53.64
40372;BME280;28564;53.346;-6.554;2023-12-14T04:26:10;100685.06;;;12.09;53.58
40372;BME280;28564;53.346;-6.554;2023-12-14T04:28:37;100682.99;;;12.05;53.41
40372;BME280;28564;53.346;-6.554;2023-12-14T04:31:04;100682.64;;;12.02;53.55
40372;BME280;28564;53.346;-6.554;2023-12-14T04:33:32;100689.28;;;12.25;53.60
40372;BME280;28564;53.346;-6.554;2023-12-14T04:35:59;100697.77;;;12.06;53.60
40372;BME280;28564;53.346;-6.554;2023-12-14T04:38:27;100700.74;;;12.06;53.75
40372;BME280;28564;53.346;-6.554;2023-12-14T04:40:54;100703.20;;;11.89;53.82
40372;BME280;28564;53.346;-6.554;2023-12-14T04:43:21;100712.67;;;12.39;53.88
40372;BME280;28564;53.346;-6.554;2023-12-14T04:45:48;100721.95;;;12.19;53.91
40372;BME280;28564;53.346;-6.554;2023-12-14T04:48:16;100722.27;;;12.22;53.82
40372;BME280;28564;53.346;-6.554;2023-12-14T04:50:43;100720.12;;;12.26;53.78
40372;BME280;28564;53.346;-6.554;2023-12-14T04:53:10;100715.42;;;12.07;53.81
40372;BME280;28564;53.346;-6.554;2023-12-14T04:55:37;100720.59;;;12.32;53.83
40372;BME280;28564;53.346;-6.554;2023-12-14T04:58:04;100716.12;;;12.35;53.84
40372;BME280;28564;53.346;-6.554;2023-12-14T05:00:32;100719.56;;;12.35;53.97
40372;BME280;28564;53.346;-6.554;2023-12-14T05:03:00;100721.00;;;12.37;54.12
40372;BME280;28564;53.346;-6.554;2023-12-14T05:05:27;100721.29;;;12.20;54.09
40372;BME280;28564;53.346;-6.554;2023-12-14T05:07:55;100729.51;;;12.23;54.08
40372;BME280;28564;53.346;-6.554;2023-12-14T05:10:22;100738.73;;;12.51;54.03
40372;BME280;28564;53.346;-6.554;2023-12-14T05:12:49;100741.38;;;12.56;54.03
40372;BME280;28564;53.346;-6.554;2023-12-14T05:15:16;100746.28;;;12.60;54.09
40372;BME280;28564;53.346;-6.554;2023-12-14T05:17:45;100754.94;;;12.63;54.19
40372;BME280;28564;53.346;-6.554;2023-12-14T05:20:12;100760.03;;;12.22;54.15
40372;BME280;28564;53.346;-6.554;2023-12-14T05:22:39;100759.42;;;12.78;54.06
40372;BME280;28564;53.346;-6.554;2023-12-14T05:25:08;100759.13;;;12.83;54.02
40372;BME280;28564;53.346;-6.554;2023-12-14T05:27:36;100765.55;;;12.39;54.06
40372;BME280;28564;53.346;-6.554;2023-12-14T05:30:03;100762.85;;;12.47;53.95
40372;BME280;28564;53.346;-6.554;2023-12-14T05:32:31;100770.49;;;12.79;53.98
40372;BME280;28564;53.346;-6.554;2023-12-14T05:34:58;100771.36;;;12.55;53.99
40372;BME280;28564;53.346;-6.554;2023-12-14T05:37:25;100776.09;;;12.58;54.02
40372;BME280;28564;53.346;-6.554;2023-12-14T05:39:53;100772.16;;;12.62;54.04
40372;BME280;28564;53.346;-6.554;2023-12-14T05:42:20;100769.59;;;12.63;54.05
40372;BME280;28564;53.346;-6.554;2023-12-14T05:44:47;100774.76;;;12.64;54.09
40372;BME280;28564;53.346;-6.554;2023-12-14T05:47:14;100780.18;;;12.67;54.04
40372;BME280;28564;53.346;-6.554;2023-12-14T05:49:42;100780.51;;;12.69;53.74
40372;BME280;28564;53.346;-6.554;2023-12-14T05:52:09;100788.90;;;12.68;53.54
40372;BME280;28564;53.346;-6.554;2023-12-14T05:54:36;100795.96;;;12.66;53.34
40372;BME280;28564;53.346;-6.554;2023-12-14T05:57:03;100804.61;;;13.10;53.35
40372;BME280;28564;53.346;-6.554;2023-12-14T05:59:31;100802.68;;;12.54;53.06
40372;BME280;28564;53.346;-6.554;2023-12-14T06:01:58;100807.52;;;12.46;52.86
40372;BME280;28564;53.346;-6.554;2023-12-14T06:04:27;100809.74;;;12.84;52.80
40372;BME280;28564;53.346;-6.554;2023-12-14T06:06:54;100819.20;;;12.53;52.77
40372;BME280;28564;53.346;-6.554;2023-12-14T06:09:21;100831.26;;;12.17;52.71
40372;BME280;28564;53.346;-6.554;2023-12-14T06:11:49;100832.88;;;12.57;52.70
40372;BME280;28564;53.346;-6.554;2023-12-14T06:14:16;100833.74;;;12.04;52.54
40372;BME280;28564;53.346;-6.554;2023-12-14T06:16:43;100833.90;;;12.43;52.53
40372;BME280;28564;53.346;-6.554;2023-12-14T06:19:10;100848.17;;;12.34;52.52
40372;BME280;28564;53.346;-6.554;2023-12-14T06:21:38;100850.38;;;12.05;52.53
40372;BME280;28564;53.346;-6.554;2023-12-14T06:24:05;100856.16;;;12.24;52.52
40372;BME280;28564;53.346;-6.554;2023-12-14T06:26:32;100856.00;;;12.18;52.52
40372;BME280;28564;53.346;-6.554;2023-12-14T06:28:59;100859.66;;;12.15;52.51
40372;BME280;28564;53.346;-6.554;2023-12-14T06:31:27;100861.23;;;12.09;52.37
40372;BME280;28564;53.346;-6.554;2023-12-14T06:33:54;100856.81;;;12.26;52.52
40372;BME280;28564;53.346;-6.554;2023-12-14T06:36:21;100855.18;;;12.00;52.47
40372;BME280;28564;53.346;-6.554;2023-12-14T06:38:48;100860.24;;;11.73;52.45
40372;BME280;28564;53.346;-6.554;2023-12-14T06:41:19;100862.51;;;11.91;52.42
40372;BME280;28564;53.346;-6.554;2023-12-14T06:43:45;100864.96;;;11.84;52.41
40372;BME280;28564;53.346;-6.554;2023-12-14T06:46:13;100870.55;;;11.80;52.39
40372;BME280;28564;53.346;-6.554;2023-12-14T06:48:40;100872.20;;;11.51;52.39
40372;BME280;28564;53.346;-6.554;2023-12-14T06:51:07;100871.67;;;11.71;52.30
40372;BME280;28564;53.346;-6.554;2023-12-14T06:53:35;100877.87;;;11.63;52.28
40372;BME280;28564;53.346;-6.554;2023-12-14T06:56:03;100885.66;;;11.59;52.41
40372;BME280;28564;53.346;-6.554;2023-12-14T06:58:30;100892.70;;;11.75;52.42
40372;BME280;28564;53.346;-6.554;2023-12-14T07:00:58;100902.69;;;11.71;52.47
40372;BME280;28564;53.346;-6.554;2023-12-14T07:03:25;100912.65;;;11.45;52.57
40372;BME280;28564;53.346;-6.554;2023-12-14T07:05:52;100918.26;;;11.42;52.56
40372;BME280;28564;53.346;-6.554;2023-12-14T07:08:19;100921.13;;;11.42;52.61
40372;BME280;28564;53.346;-6.554;2023-12-14T07:10:47;100920.23;;;11.61;52.86
40372;BME280;28564;53.346;-6.554;2023-12-14T07:13:14;100925.15;;;11.65;53.07
40372;BME280;28564;53.346;-6.554;2023-12-14T07:15:41;100928.00;;;11.70;52.77
40372;BME280;28564;53.346;-6.554;2023-12-14T07:18:08;100935.56;;;11.67;52.71
40372;BME280;28564;53.346;-6.554;2023-12-14T07:20:35;100942.22;;;11.44;52.48
40372;BME280;28564;53.346;-6.554;2023-12-14T07:23:02;100948.74;;;11.89;52.50
40372;BME280;28564;53.346;-6.554;2023-12-14T07:25:29;100954.74;;;11.56;52.26
40372;BME280;28564;53.346;-6.554;2023-12-14T07:27:57;100960.45;;;11.54;52.24
40372;BME280;28564;53.346;-6.554;2023-12-14T07:30:24;100959.01;;;11.77;52.11
40372;BME280;28564;53.346;-6.554;2023-12-14T07:32:52;100957.59;;;11.25;52.06
40372;BME280;28564;53.346;-6.554;2023-12-14T07:35:19;100958.26;;;11.43;51.87
40372;BME280;28564;53.346;-6.554;2023-12-14T07:37:47;100960.68;;;11.65;51.73
40372;BME280;28564;53.346;-6.554;2023-12-14T07:40:14;100971.79;;;11.61;51.60
40372;BME280;28564;53.346;-6.554;2023-12-14T07:42:41;100982.73;;;11.08;51.49
40372;BME280;28564;53.346;-6.554;2023-12-14T07:45:09;100986.96;;;11.03;51.43
40372;BME280;28564;53.346;-6.554;2023-12-14T07:47:36;100989.68;;;11.23;51.21
40372;BME280;28564;53.346;-6.554;2023-12-14T07:50:03;100992.44;;;11.44;51.10
40372;BME280;28564;53.346;-6.554;2023-12-14T07:52:31;100996.08;;;11.12;51.23
40372;BME280;28564;53.346;-6.554;2023-12-14T07:54:57;100997.76;;;11.10;50.99
40372;BME280;28564;53.346;-6.554;2023-12-14T07:57:25;101002.31;;;10.87;50.89
40372;BME280;28564;53.346;-6.554;2023-12-14T07:59:52;101001.04;;;11.32;50.86
40372;BME280;28564;53.346;-6.554;2023-12-14T08:02:19;101005.31;;;11.01;50.98
40372;BME280;28564;53.346;-6.554;2023-12-14T08:04:46;101013.89;;;11.03;51.16
40372;BME280;28564;53.346;-6.554;2023-12-14T08:07:13;101019.94;;;11.10;51.19
40372;BME280;28564;53.346;-6.554;2023-12-14T08:09:42;101028.40;;;10.99;51.09
40372;BME280;28564;53.346;-6.554;2023-12-14T08:12:09;101033.16;;;11.27;51.09
40372;BME280;28564;53.346;-6.554;2023-12-14T08:14:36;101033.43;;;11.15;50.63
40372;BME280;28564;53.346;-6.554;2023-12-14T08:17:04;101040.99;;;11.21;50.39
40372;BME280;28564;53.346;-6.554;2023-12-14T08:19:31;101040.04;;;11.49;50.06
40372;BME280;28564;53.346;-6.554;2023-12-14T08:21:58;101043.35;;;11.30;49.91
40372;BME280;28564;53.346;-6.554;2023-12-14T08:24:25;101043.24;;;11.56;49.77
40372;BME280;28564;53.346;-6.554;2023-12-14T08:26:52;101053.38;;;11.37;49.85
40372;BME280;28564;53.346;-6.554;2023-12-14T08:29:19;101055.94;;;11.66;49.51
40372;BME280;28564;53.346;-6.554;2023-12-14T08:31:46;101064.67;;;11.46;49.60
40372;BME280;28564;53.346;-6.554;2023-12-14T08:34:14;101073.37;;;11.48;49.42
40372;BME280;28564;53.346;-6.554;2023-12-14T08:36:41;101085.29;;;11.51;49.26
40372;BME280;28564;53.346;-6.554;2023-12-14T08:39:08;101089.28;;;11.53;49.20
40372;BME280;28564;53.346;-6.554;2023-12-14T08:41:36;101098.76;;;11.54;48.92
40372;BME280;28564;53.346;-6.554;2023-12-14T08:44:03;101104.32;;;11.51;49.17
40372;BME280;28564;53.346;-6.554;2023-12-14T08:46:38;101103.62;;;11.56;49.00
40372;BME280;28564;53.346;-6.554;2023-12-14T08:49:06;101103.04;;;11.58;48.68
40372;BME280;28564;53.346;-6.554;2023-12-14T08:51:33;101105.30;;;11.59;48.64
40372;BME280;28564;53.346;-6.554;2023-12-14T08:54:00;101110.82;;;11.85;48.54
40372;BME280;28564;53.346;-6.554;2023-12-14T08:56:28;101107.32;;;11.65;48.34
40372;BME280;28564;53.346;-6.554;2023-12-14T08:58:55;101110.58;;;11.68;48.33
40372;BME280;28564;53.346;-6.554;2023-12-14T09:01:23;101116.04;;;11.71;47.89
40372;BME280;28564;53.346;-6.554;2023-12-14T09:03:50;101123.10;;;11.72;47.87
40372;BME280;28564;53.346;-6.554;2023-12-14T09:06:18;101127.26;;;11.75;47.82
40372;BME280;28564;53.346;-6.554;2023-12-14T09:08:46;101133.99;;;11.76;47.56
40372;BME280;28564;53.346;-6.554;2023-12-14T09:11:13;101139.57;;;11.80;47.69
40372;BME280;28564;53.346;-6.554;2023-12-14T09:13:40;101141.51;;;11.84;47.39
40372;BME280;28564;53.346;-6.554;2023-12-14T09:16:08;101148.55;;;11.85;47.42
40372;BME280;28564;53.346;-6.554;2023-12-14T09:18:35;101152.37;;;11.87;47.24
40372;BME280;28564;53.346;-6.554;2023-12-14T09:21:02;101152.66;;;11.91;47.07
40372;BME280;28564;53.346;-6.554;2023-12-14T09:23:31;101157.57;;;11.95;46.90
40372;BME280;28564;53.346;-6.554;2023-12-14T09:25:59;101162.79;;;11.74;46.65
40372;BME280;28564;53.346;-6.554;2023-12-14T09:28:26;101169.72;;;11.98;46.45
40372;BME280;28564;53.346;-6.554;2023-12-14T09:30:54;101174.10;;;11.98;46.55
40372;BME280;28564;53.346;-6.554;2023-12-14T09:33:21;101174.92;;;12.00;46.51
40372;BME280;28564;53.346;-6.554;2023-12-14T09:35:48;101175.15;;;12.02;46.47
40372;BME280;28564;53.346;-6.554;2023-12-14T09:38:15;101180.33;;;12.01;46.68
40372;BME280;28564;53.346;-6.554;2023-12-14T09:40:43;101181.45;;;12.04;46.49
40372;BME280;28564;53.346;-6.554;2023-12-14T09:43:10;101182.44;;;12.07;46.56
40372;BME280;28564;53.346;-6.554;2023-12-14T09:45:39;101186.79;;;11.90;46.74
40372;BME280;28564;53.346;-6.554;2023-12-14T09:48:10;101190.70;;;12.20;46.47
40372;BME280;28564;53.346;-6.554;2023-12-14T09:50:39;101197.50;;;12.25;46.46
40372;BME280;28564;53.346;-6.554;2023-12-14T09:53:06;101199.69;;;12.32;46.44
40372;BME280;28564;53.346;-6.554;2023-12-14T09:55:33;101202.94;;;11.83;46.45
40372;BME280;28564;53.346;-6.554;2023-12-14T09:58:01;101201.77;;;11.88;46.48
40372;BME280;28564;53.346;-6.554;2023-12-14T10:00:34;101199.42;;;12.17;46.45
40372;BME280;28564;53.346;-6.554;2023-12-14T10:03:19;101201.41;;;12.40;46.37
40372;BME280;28564;53.346;-6.554;2023-12-14T10:05:48;101200.86;;;11.91;46.34
40372;BME280;28564;53.346;-6.554;2023-12-14T10:08:15;101204.72;;;12.40;46.30
40372;BME280;28564;53.346;-6.554;2023-12-14T10:10:43;101208.74;;;12.39;46.44
40372;BME280;28564;53.346;-6.554;2023-12-14T10:13:10;101209.54;;;12.19;46.57
40372;BME280;28564;53.346;-6.554;2023-12-14T10:15:45;101222.52;;;11.98;46.20
40372;BME280;28564;53.346;-6.554;2023-12-14T10:18:21;101231.12;;;12.26;46.17
40372;BME280;28564;53.346;-6.554;2023-12-14T10:20:49;101241.50;;;12.49;46.18
40372;BME280;28564;53.346;-6.554;2023-12-14T10:23:17;101243.29;;;12.52;46.22
40372;BME280;28564;53.346;-6.554;2023-12-14T10:25:45;101245.71;;;12.55;46.05
40372;BME280;28564;53.346;-6.554;2023-12-14T10:28:13;101254.62;;;12.07;45.95
40372;BME280;28564;53.346;-6.554;2023-12-14T10:30:40;101260.02;;;12.34;45.87
40372;BME280;28564;53.346;-6.554;2023-12-14T10:33:07;101267.21;;;12.08;45.67
40372;BME280;28564;53.346;-6.554;2023-12-14T10:35:34;101271.66;;;12.58;45.74
40372;BME280;28564;53.346;-6.554;2023-12-14T10:38:03;101271.03;;;12.13;45.74
40372;BME280;28564;53.346;-6.554;2023-12-14T10:40:32;101274.34;;;12.67;45.72
40372;BME280;28564;53.346;-6.554;2023-12-14T10:43:00;101276.32;;;12.23;45.61
40372;BME280;28564;53.346;-6.554;2023-12-14T10:45:30;101284.19;;;12.28;45.41
40372;BME280;28564;53.346;-6.554;2023-12-14T10:48:00;101288.38;;;12.34;45.14
40372;BME280;28564;53.346;-6.554;2023-12-14T10:50:29;101291.31;;;12.43;44.84
40372;BME280;28564;53.346;-6.554;2023-12-14T10:52:57;101289.94;;;12.49;44.57
40372;BME280;28564;53.346;-6.554;2023-12-14T10:55:29;101298.22;;;12.52;44.14
40372;BME280;28564;53.346;-6.554;2023-12-14T10:57:58;101299.53;;;12.56;43.53
40372;BME280;28564;53.346;-6.554;2023-12-14T11:00:25;101296.33;;;12.56;43.54
40372;BME280;28564;53.346;-6.554;2023-12-14T11:02:52;101293.22;;;12.60;43.15
40372;BME280;28564;53.346;-6.554;2023-12-14T11:05:21;101292.00;;;12.64;42.88
40372;BME280;28564;53.346;-6.554;2023-12-14T11:07:51;101292.68;;;12.70;42.96
40372;BME280;28564;53.346;-6.554;2023-12-14T11:10:22;101293.61;;;12.75;42.84
40372;BME280;28564;53.346;-6.554;2023-12-14T11:12:54;101294.96;;;12.79;42.79
40372;BME280;28564;53.346;-6.554;2023-12-14T11:15:22;101300.21;;;12.78;43.05
40372;BME280;28564;53.346;-6.554;2023-12-14T11:18:24;101298.08;;;12.81;42.95
40372;BME280;28564;53.346;-6.554;2023-12-14T11:20:54;101310.43;;;12.87;42.43
40372;BME280;28564;53.346;-6.554;2023-12-14T11:23:37;101307.18;;;12.89;42.41
40372;BME280;28564;53.346;-6.554;2023-12-14T11:26:06;101303.82;;;12.68;42.24
40372;BME280;28564;53.346;-6.554;2023-12-14T11:28:35;101311.98;;;12.86;42.37
40372;BME280;28564;53.346;-6.554;2023-12-14T11:31:03;101315.75;;;12.87;42.35
40372;BME280;28564;53.346;-6.554;2023-12-14T11:33:32;101312.25;;;12.89;42.45
40372;BME280;28564;53.346;-6.554;2023-12-14T11:36:01;101320.69;;;12.89;42.40
40372;BME280;28564;53.346;-6.554;2023-12-14T11:38:29;101317.67;;;12.89;42.43
40372;BME280;28564;53.346;-6.554;2023-12-14T11:40:57;101320.23;;;12.87;42.53
40372;BME280;28564;53.346;-6.554;2023-12-14T11:43:25;101321.76;;;12.84;42.55
40372;BME280;28564;53.346;-6.554;2023-12-14T11:45:52;101318.30;;;12.80;42.77
40372;BME280;28564;53.346;-6.554;2023-12-14T11:48:20;101319.49;;;12.77;42.87
40372;BME280;28564;53.346;-6.554;2023-12-14T11:50:47;101326.19;;;12.78;42.86
40372;BME280;28564;53.346;-6.554;2023-12-14T11:53:14;101328.25;;;12.82;42.98
40372;BME280;28564;53.346;-6.554;2023-12-14T11:55:42;101328.69;;;12.86;42.93
40372;BME280;28564;53.346;-6.554;2023-12-14T11:58:12;101330.74;;;12.89;42.90
40372;BME280;28564;53.346;-6.554;2023-12-14T12:00:40;101327.49;;;12.96;42.98
40372;BME280;28564;53.346;-6.554;2023-12-14T12:03:09;101325.98;;;13.03;42.96
40372;BME280;28564;53.346;-6.554;2023-12-14T12:05:39;101323.83;;;13.10;43.00
40372;BME280;28564;53.346;-6.554;2023-12-14T12:08:08;101326.18;;;13.19;42.89
40372;BME280;28564;53.346;-6.554;2023-12-14T12:10:37;101323.66;;;13.27;42.65
40372;BME280;28564;53.346;-6.554;2023-12-14T12:13:06;101325.05;;;13.11;42.63
40372;BME280;28564;53.346;-6.554;2023-12-14T12:15:35;101331.60;;;13.37;42.61
40372;BME280;28564;53.346;-6.554;2023-12-14T12:18:04;101329.96;;;13.44;42.36
40372;BME280;28564;53.346;-6.554;2023-12-14T12:20:32;101333.87;;;13.23;42.50
40372;BME280;28564;53.346;-6.554;2023-12-14T12:22:59;101329.72;;;13.21;42.62
40372;BME280;28564;53.346;-6.554;2023-12-14T12:25:27;101327.98;;;13.19;42.65
40372;BME280;28564;53.346;-6.554;2023-12-14T12:27:54;101331.83;;;13.21;42.64
40372;BME280;28564;53.346;-6.554;2023-12-14T12:30:21;101334.67;;;13.23;42.63
40372;BME280;28564;53.346;-6.554;2023-12-14T12:32:49;101342.23;;;13.26;42.81
40372;BME280;28564;53.346;-6.554;2023-12-14T12:35:16;101346.35;;;13.08;42.73
40372;BME280;28564;53.346;-6.554;2023-12-14T12:37:44;101352.21;;;13.33;42.68
40372;BME280;28564;53.346;-6.554;2023-12-14T12:40:11;101352.07;;;13.33;42.66
40372;BME280;28564;53.346;-6.554;2023-12-14T12:42:39;101352.63;;;13.30;42.71